sensor_id;sensor_type;location;lat;lon;timestamp;pressure;altitude;pressure_sealevel;temperature;humidity
18436;BME280;9346;52.006;4.720;2023-05-01T00:01:31;101701.91;;;11.93;100.00
18436;BME280;9346;52.006;4.720;2023-05-01T00:03:58;101691.38;;;11.90;100.00
18436;BME280;9346;52.006;4.720;2023-05-01T00:06:27;101688.03;;;11.88;100.00
18436;BME280;9346;52.006;4.720;2023-05-01T00:08:54;101696.03;;;11.85;100.00
18436;BME280;9346;52.006;4.720;2023-05-01T00:11:21;101683.56;;;11.82;100.00
18436;BME280;9346;52.006;4.720;2023-05-01T00:13:48;101684.66;;;11.81;100.00
18436;BME280;9346;52.006;4.720;2023-05-01T00:16:16;101682.69;;;11.77;100.00
18436;BME280;9346;52.006;4.720;2023-05-01T00:18:43;101680.19;;;11.75;100.00
18436;BME280;9346;52.006;4.720;2023-05-01T00:21:09;101669.66;;;11.72;100.00
18436;BME280;9346;52.006;4.720;2023-05-01T00:23:38;101675.44;;;11.71;100.00
18436;BME280;9346;52.006;4.720;2023-05-01T00:26:05;101667.69;;;11.68;100.00
18436;BME280;9346;52.006;4.720;2023-05-01T00:28:32;101661.88;;;11.64;100.00
18436;BME280;9346;52.006;4.720;2023-05-01T00:30:58;101660.19;;;11.63;100.00
18436;BME280;9346;52.006;4.720;2023-05-01T00:33:25;101657.09;;;11.60;100.00
18436;BME280;9346;52.006;4.720;2023-05-01T00:35:53;101655.41;;;11.59;100.00
18436;BME280;9346;52.006;4.720;2023-05-01T00:38:20;101652.94;;;11.57;100.00
18436;BME280;9346;52.006;4.720;2023-05-01T00:40:50;101656.78;;;11.56;100.00
18436;BME280;9346;52.006;4.720;2023-05-01T00:43:17;101649.59;;;11.55;100.00
18436;BME280;9346;52.006;4.720;2023-05-01T00:45:44;101644.63;;;11.52;100.00
18436;BME280;9346;52.006;4.720;2023-05-01T00:48:11;101639.94;;;11.53;100.00
18436;BME280;9346;52.006;4.720;2023-05-01T00:50:39;101636.34;;;11.52;100.00
18436;BME280;9346;52.006;4.720;2023-05-01T00:53:06;101631.34;;;11.49;100.00
18436;BME280;9346;52.006;4.720;2023-05-01T00:55:33;101627.75;;;11.49;100.00
18436;BME280;9346;52.006;4.720;2023-05-01T00:58:03;101630.75;;;11.47;100.00
18436;BME280;9346;52.006;4.720;2023-05-01T01:00:30;101627.19;;;11.47;100.00
18436;BME280;9346;52.006;4.720;2023-05-01T01:02:58;101626.34;;;11.46;100.00
18436;BME280;9346;52.006;4.720;2023-05-01T01:05:26;101625.75;;;11.44;100.00
18436;BME280;9346;52.006;4.720;2023-05-01T01:08:04;101620.81;;;11.46;100.00
18436;BME280;9346;52.006;4.720;2023-05-01T01:10:38;101616.97;;;11.47;100.00
18436;BME280;9346;52.006;4.720;2023-05-01T01:13:16;101604.84;;;11.48;100.00
18436;BME280;9346;52.006;4.720;2023-05-01T01:15:49;101612.28;;;11.48;100.00
18436;BME280;9346;52.006;4.720;2023-05-01T01:18:23;101599.34;;;11.48;100.00
18436;BME280;9346;52.006;4.720;2023-05-01T01:21:00;101601.00;;;11.49;100.00
18436;BME280;9346;52.006;4.720;2023-05-01T01:27:10;101593.56;;;11.50;100.00
18436;BME280;9346;52.006;4.720;2023-05-01T01:29:55;101584.44;;;11.49;100.00
18436;BME280;9346;52.006;4.720;2023-05-01T01:32:37;101588.31;;;11.53;100.00
18436;BME280;9346;52.006;4.720;2023-05-01T01:35:17;101578.41;;;11.52;100.00
18436;BME280;9346;52.006;4.720;2023-05-01T01:37:48;101570.13;;;11.52;100.00
18436;BME280;9346;52.006;4.720;2023-05-01T01:40:19;101567.38;;;11.52;100.00
18436;BME280;9346;52.006;4.720;2023-05-01T01:42:52;101552.47;;;11.53;100.00
18436;BME280;9346;52.006;4.720;2023-05-01T01:45:24;101553.03;;;11.55;100.00
18436;BME280;9346;52.006;4.720;2023-05-01T01:47:55;101548.91;;;11.58;100.00
18436;BME280;9346;52.006;4.720;2023-05-01T01:50:25;101547.00;;;11.58;100.00
18436;BME280;9346;52.006;4.720;2023-05-01T01:52:57;101543.97;;;11.60;100.00
18436;BME280;9346;52.006;4.720;2023-05-01T01:55:28;101540.97;;;11.61;100.00
18436;BME280;9346;52.006;4.720;2023-05-01T01:57:57;101539.88;;;11.62;100.00
18436;BME280;9346;52.006;4.720;2023-05-01T02:00:26;101535.44;;;11.61;100.00
18436;BME280;9346;52.006;4.720;2023-05-01T02:02:54;101540.72;;;11.63;100.00
18436;BME280;9346;52.006;4.720;2023-05-01T02:05:25;101541.81;;;11.62;100.00
18436;BME280;9346;52.006;4.720;2023-05-01T02:07:53;101543.47;;;11.63;100.00
18436;BME280;9346;52.006;4.720;2023-05-01T02:10:22;101539.03;;;11.62;100.00
18436;BME280;9346;52.006;4.720;2023-05-01T02:12:51;101533.25;;;11.63;100.00
18436;BME280;9346;52.006;4.720;2023-05-01T02:15:21;101521.16;;;11.64;100.00
18436;BME280;9346;52.006;4.720;2023-05-01T02:17:50;101521.41;;;11.63;100.00
18436;BME280;9346;52.006;4.720;2023-05-01T02:20:18;101523.06;;;11.64;100.00
18436;BME280;9346;52.006;4.720;2023-05-01T02:22:49;101522.22;;;11.63;100.00
18436;BME280;9346;52.006;4.720;2023-05-01T02:25:17;101508.41;;;11.63;100.00
18436;BME280;9346;52.006;4.720;2023-05-01T02:27:47;101511.44;;;11.62;100.00
18436;BME280;9346;52.006;4.720;2023-05-01T02:30:17;101510.59;;;11.61;100.00
18436;BME280;9346;52.006;4.720;2023-05-01T02:32:44;101512.28;;;11.62;100.00
18436;BME280;9346;52.006;4.720;2023-05-01T02:35:11;101497.97;;;11.65;100.00
18436;BME280;9346;52.006;4.720;2023-05-01T02:37:39;101512.03;;;11.64;100.00
18436;BME280;9346;52.006;4.720;2023-05-01T02:40:10;101498.22;;;11.64;100.00
18436;BME280;9346;52.006;4.720;2023-05-01T02:42:40;101494.03;;;11.61;100.00
18436;BME280;9346;52.006;4.720;2023-05-01T02:45:11;101501.25;;;11.62;100.00
18436;BME280;9346;52.006;4.720;2023-05-01T02:47:41;101505.09;;;11.61;100.00
18436;BME280;9346;52.006;4.720;2023-05-01T02:50:10;101496.22;;;11.59;100.00
18436;BME280;9346;52.006;4.720;2023-05-01T02:52:38;101487.09;;;11.59;100.00
18436;BME280;9346;52.006;4.720;2023-05-01T02:55:11;101487.41;;;11.57;100.00
18436;BME280;9346;52.006;4.720;2023-05-01T02:57:38;101481.03;;;11.57;100.00
18436;BME280;9346;52.006;4.720;2023-05-01T03:00:08;101478.53;;;11.55;100.00
18436;BME280;9346;52.006;4.720;2023-05-01T03:02:38;101468.63;;;11.54;100.00
18436;BME280;9346;52.006;4.720;2023-05-01T03:05:06;101471.38;;;11.54;100.00
18436;BME280;9346;52.006;4.720;2023-05-01T03:07:35;101475.78;;;11.55;100.00
18436;BME280;9346;52.006;4.720;2023-05-01T03:10:03;101475.22;;;11.53;100.00
18436;BME280;9346;52.006;4.720;2023-05-01T03:12:32;101474.41;;;11.53;100.00
18436;BME280;9346;52.006;4.720;2023-05-01T03:14:59;101473.56;;;11.52;100.00
18436;BME280;9346;52.006;4.720;2023-05-01T03:17:26;101459.19;;;11.50;100.00
18436;BME280;9346;52.006;4.720;2023-05-01T03:19:53;101461.13;;;11.50;100.00
18436;BME280;9346;52.006;4.720;2023-05-01T03:22:20;101456.69;;;11.49;100.00
18436;BME280;9346;52.006;4.720;2023-05-01T03:24:48;101456.94;;;11.47;100.00
18436;BME280;9346;52.006;4.720;2023-05-01T03:27:15;101456.41;;;11.45;100.00
18436;BME280;9346;52.006;4.720;2023-05-01T03:29:44;101449.22;;;11.44;100.00
18436;BME280;9346;52.006;4.720;2023-05-01T03:32:11;101439.00;;;11.45;100.00
18436;BME280;9346;52.006;4.720;2023-05-01T03:34:38;101447.28;;;11.45;100.00
18436;BME280;9346;52.006;4.720;2023-05-01T03:37:05;101431.84;;;11.44;100.00
18436;BME280;9346;52.006;4.720;2023-05-01T03:39:33;101429.34;;;11.42;100.00
18436;BME280;9346;52.006;4.720;2023-05-01T03:42:00;101431.00;;;11.43;100.00
18436;BME280;9346;52.006;4.720;2023-05-01T03:44:27;101439.28;;;11.43;100.00
18436;BME280;9346;52.006;4.720;2023-05-01T03:46:56;101429.34;;;11.42;100.00
18436;BME280;9346;52.006;4.720;2023-05-01T03:49:25;101426.59;;;11.42;100.00
18436;BME280;9346;52.006;4.720;2023-05-01T03:51:53;101425.75;;;11.42;100.00
18436;BME280;9346;52.006;4.720;2023-05-01T03:54:20;101420.25;;;11.42;100.00
18436;BME280;9346;52.006;4.720;2023-05-01T03:56:47;101424.94;;;11.41;100.00
18436;BME280;9346;52.006;4.720;2023-05-01T03:59:14;101416.66;;;11.41;100.00
18436;BME280;9346;52.006;4.720;2023-05-01T04:01:41;101422.19;;;11.41;100.00
18436;BME280;9346;52.006;4.720;2023-05-01T04:04:11;101416.94;;;11.40;100.00
18436;BME280;9346;52.006;4.720;2023-05-01T04:06:38;101414.16;;;11.40;100.00
18436;BME280;9346;52.006;4.720;2023-05-01T04:09:06;101420.50;;;11.40;100.00
18436;BME280;9346;52.006;4.720;2023-05-01T04:11:32;101417.75;;;11.40;100.00
18436;BME280;9346;52.006;4.720;2023-05-01T04:14:00;101409.72;;;11.38;100.00
18436;BME280;9346;52.006;4.720;2023-05-01T04:16:26;101412.75;;;11.37;100.00
18436;BME280;9346;52.006;4.720;2023-05-01T04:18:53;101412.50;;;11.38;100.00
18436;BME280;9346;52.006;4.720;2023-05-01T04:21:23;101408.06;;;11.38;100.00
18436;BME280;9346;52.006;4.720;2023-05-01T04:23:50;101412.22;;;11.40;100.00
18436;BME280;9346;52.006;4.720;2023-05-01T04:26:17;101411.69;;;11.38;100.00
18436;BME280;9346;52.006;4.720;2023-05-01T04:28:44;101408.91;;;11.38;100.00
18436;BME280;9346;52.006;4.720;2023-05-01T04:31:15;101411.69;;;11.38;100.00
18436;BME280;9346;52.006;4.720;2023-05-01T04:33:41;101408.06;;;11.38;100.00
18436;BME280;9346;52.006;4.720;2023-05-01T04:36:08;101402.81;;;11.36;100.00
18436;BME280;9346;52.006;4.720;2023-05-01T04:38:37;101413.34;;;11.39;100.00
18436;BME280;9346;52.006;4.720;2023-05-01T04:41:04;101407.81;;;11.39;100.00
18436;BME280;9346;52.006;4.720;2023-05-01T04:43:31;101410.56;;;11.39;100.00
18436;BME280;9346;52.006;4.720;2023-05-01T04:45:59;101410.56;;;11.39;100.00
18436;BME280;9346;52.006;4.720;2023-05-01T04:48:25;101404.22;;;11.38;100.00
18436;BME280;9346;52.006;4.720;2023-05-01T04:50:52;101407.81;;;11.39;100.00
18436;BME280;9346;52.006;4.720;2023-05-01T04:53:20;101406.72;;;11.40;100.00
18436;BME280;9346;52.006;4.720;2023-05-01T04:55:49;101405.63;;;11.41;100.00
18436;BME280;9346;52.006;4.720;2023-05-01T04:58:16;101403.41;;;11.43;100.00
18436;BME280;9346;52.006;4.720;2023-05-01T05:00:43;101410.59;;;11.44;100.00
18436;BME280;9346;52.006;4.720;2023-05-01T05:03:10;101410.59;;;11.44;100.00
18436;BME280;9346;52.006;4.720;2023-05-01T05:05:37;101408.41;;;11.46;100.00
18436;BME280;9346;52.006;4.720;2023-05-01T05:08:04;101406.75;;;11.45;100.00
18436;BME280;9346;52.006;4.720;2023-05-01T05:10:31;101411.16;;;11.46;100.00
18436;BME280;9346;52.006;4.720;2023-05-01T05:13:00;101410.91;;;11.48;100.00
18436;BME280;9346;52.006;4.720;2023-05-01T05:15:27;101401.53;;;11.49;100.00
18436;BME280;9346;52.006;4.720;2023-05-01T05:17:56;101407.03;;;11.49;100.00
18436;BME280;9346;52.006;4.720;2023-05-01T05:20:23;101407.88;;;11.49;100.00
18436;BME280;9346;52.006;4.720;2023-05-01T05:22:51;101406.78;;;11.50;100.00
18436;BME280;9346;52.006;4.720;2023-05-01T05:25:17;101408.19;;;11.53;100.00
18436;BME280;9346;52.006;4.720;2023-05-01T05:27:44;101408.44;;;11.51;100.00
18436;BME280;9346;52.006;4.720;2023-05-01T05:30:13;101399.34;;;11.51;100.00
18436;BME280;9346;52.006;4.720;2023-05-01T05:32:41;101401.56;;;11.54;100.00
18436;BME280;9346;52.006;4.720;2023-05-01T05:35:09;101401.56;;;11.54;100.00
18436;BME280;9346;52.006;4.720;2023-05-01T05:37:36;101396.03;;;11.54;100.00
18436;BME280;9346;52.006;4.720;2023-05-01T05:40:04;101403.47;;;11.53;100.00
18436;BME280;9346;52.006;4.720;2023-05-01T05:42:31;101402.66;;;11.53;100.00
18436;BME280;9346;52.006;4.720;2023-05-01T05:44:58;101403.47;;;11.53;100.00
18436;BME280;9346;52.006;4.720;2023-05-01T05:47:27;101397.97;;;11.53;100.00
18436;BME280;9346;52.006;4.720;2023-05-01T05:49:54;101396.63;;;11.56;100.00
18436;BME280;9346;52.006;4.720;2023-05-01T05:52:22;101396.63;;;11.56;100.00
18436;BME280;9346;52.006;4.720;2023-05-01T05:54:51;101397.69;;;11.55;100.00
18436;BME280;9346;52.006;4.720;2023-05-01T05:57:18;101393.84;;;11.56;100.00
18436;BME280;9346;52.006;4.720;2023-05-01T05:59:45;101397.16;;;11.58;100.00
18436;BME280;9346;52.006;4.720;2023-05-01T06:02:12;101394.72;;;11.61;100.00
18436;BME280;9346;52.006;4.720;2023-05-01T06:04:40;101392.00;;;11.66;100.00
18436;BME280;9346;52.006;4.720;2023-05-01T06:07:07;101386.53;;;11.71;100.00
18436;BME280;9346;52.006;4.720;2023-05-01T06:09:34;101382.38;;;11.74;100.00
18436;BME280;9346;52.006;4.720;2023-05-01T06:12:01;101393.47;;;11.79;100.00
18436;BME280;9346;52.006;4.720;2023-05-01T06:14:30;101390.44;;;11.80;100.00
18436;BME280;9346;52.006;4.720;2023-05-01T06:16:57;101391.81;;;11.83;100.00
18436;BME280;9346;52.006;4.720;2023-05-01T06:19:24;101392.13;;;11.86;100.00
18436;BME280;9346;52.006;4.720;2023-05-01T06:21:53;101391.28;;;11.91;100.00
18436;BME280;9346;52.006;4.720;2023-05-01T06:24:19;101388.25;;;11.92;100.00
18436;BME280;9346;52.006;4.720;2023-05-01T06:26:46;101389.41;;;11.96;100.00
18436;BME280;9346;52.006;4.720;2023-05-01T06:29:13;101397.13;;;11.99;100.00
18436;BME280;9346;52.006;4.720;2023-05-01T06:31:43;101394.13;;;12.01;100.00
18436;BME280;9346;52.006;4.720;2023-05-01T06:34:11;101396.88;;;12.06;100.00
18436;BME280;9346;52.006;4.720;2023-05-01T06:36:38;101398.81;;;12.10;100.00
18436;BME280;9346;52.006;4.720;2023-05-01T06:39:07;101394.41;;;12.14;100.00
18436;BME280;9346;52.006;4.720;2023-05-01T06:41:34;101392.75;;;12.18;100.00
18436;BME280;9346;52.006;4.720;2023-05-01T06:44:03;101398.84;;;12.20;100.00
18436;BME280;9346;52.006;4.720;2023-05-01T06:46:29;101391.94;;;12.23;100.00
18436;BME280;9346;52.006;4.720;2023-05-01T06:48:58;101395.28;;;12.25;100.00
18436;BME280;9346;52.006;4.720;2023-05-01T06:51:38;101393.38;;;12.25;100.00
18436;BME280;9346;52.006;4.720;2023-05-01T06:54:07;101393.91;;;12.27;100.00
18436;BME280;9346;52.006;4.720;2023-05-01T06:56:34;101388.69;;;12.31;100.00
18436;BME280;9346;52.006;4.720;2023-05-01T06:59:02;101388.94;;;12.34;100.00
18436;BME280;9346;52.006;4.720;2023-05-01T07:01:29;101388.97;;;12.39;100.00
18436;BME280;9346;52.006;4.720;2023-05-01T07:03:56;101394.25;;;12.46;100.00
18436;BME280;9346;52.006;4.720;2023-05-01T07:06:23;101394.25;;;12.51;100.00
18436;BME280;9346;52.006;4.720;2023-05-01T07:08:50;101397.03;;;12.56;100.00
18436;BME280;9346;52.006;4.720;2023-05-01T07:11:18;101392.31;;;12.61;100.00
18436;BME280;9346;52.006;4.720;2023-05-01T07:13:45;101396.22;;;12.60;100.00
18436;BME280;9346;52.006;4.720;2023-05-01T07:16:15;101391.50;;;12.61;100.00
18436;BME280;9346;52.006;4.720;2023-05-01T07:18:42;101395.34;;;12.65;100.00
18436;BME280;9346;52.006;4.720;2023-05-01T07:21:10;101389.28;;;12.68;100.00
18436;BME280;9346;52.006;4.720;2023-05-01T07:23:37;101393.44;;;12.70;100.00
18436;BME280;9346;52.006;4.720;2023-05-01T07:26:04;101398.97;;;12.75;100.00
18436;BME280;9346;52.006;4.720;2023-05-01T07:28:34;101391.78;;;12.79;100.00
18436;BME280;9346;52.006;4.720;2023-05-01T07:31:01;101395.09;;;12.81;100.00
18436;BME280;9346;52.006;4.720;2023-05-01T07:33:28;101394.00;;;12.82;100.00
18436;BME280;9346;52.006;4.720;2023-05-01T07:35:55;101404.78;;;12.89;100.00
18436;BME280;9346;52.006;4.720;2023-05-01T07:38:22;101401.75;;;12.95;100.00
18436;BME280;9346;52.006;4.720;2023-05-01T07:40:51;101400.13;;;12.99;100.00
18436;BME280;9346;52.006;4.720;2023-05-01T07:43:18;101402.06;;;13.04;100.00
18436;BME280;9346;52.006;4.720;2023-05-01T07:45:55;101399.00;;;13.10;100.00
18436;BME280;9346;52.006;4.720;2023-05-01T07:48:23;101414.50;;;13.16;100.00
18436;BME280;9346;52.006;4.720;2023-05-01T07:50:50;101402.31;;;13.22;100.00
18436;BME280;9346;52.006;4.720;2023-05-01T07:53:20;101411.72;;;13.26;100.00
18436;BME280;9346;52.006;4.720;2023-05-01T07:55:48;101407.84;;;13.32;100.00
18436;BME280;9346;52.006;4.720;2023-05-01T07:58:18;101405.09;;;13.32;100.00
18436;BME280;9346;52.006;4.720;2023-05-01T08:00:46;101404.25;;;13.32;100.00
18436;BME280;9346;52.006;4.720;2023-05-01T08:03:15;101395.66;;;13.33;100.00
18436;BME280;9346;52.006;4.720;2023-05-01T08:05:42;101391.50;;;13.36;100.00
18436;BME280;9346;52.006;4.720;2023-05-01T08:08:09;101388.44;;;13.37;100.00
18436;BME280;9346;52.006;4.720;2023-05-01T08:10:37;101397.03;;;13.41;100.00
18436;BME280;9346;52.006;4.720;2023-05-01T08:13:04;101397.59;;;13.43;100.00
18436;BME280;9346;52.006;4.720;2023-05-01T08:15:31;101397.84;;;13.46;100.00
18436;BME280;9346;52.006;4.720;2023-05-01T08:17:58;101398.41;;;13.48;100.00
18436;BME280;9346;52.006;4.720;2023-05-01T08:20:27;101400.06;;;13.55;100.00
18436;BME280;9346;52.006;4.720;2023-05-01T08:22:53;101397.84;;;13.62;100.00
18436;BME280;9346;52.006;4.720;2023-05-01T08:25:20;101397.25;;;13.70;100.00
18436;BME280;9346;52.006;4.720;2023-05-01T08:27:48;101393.09;;;13.72;100.00
18436;BME280;9346;52.006;4.720;2023-05-01T08:30:18;101397.50;;;13.78;100.00
18436;BME280;9346;52.006;4.720;2023-05-01T08:32:45;101395.28;;;13.85;100.00
18436;BME280;9346;52.006;4.720;2023-05-01T08:35:13;101396.91;;;13.91;100.00
18436;BME280;9346;52.006;4.720;2023-05-01T08:37:41;101398.28;;;13.94;100.00
18436;BME280;9346;52.006;4.720;2023-05-01T08:40:09;101398.81;;;13.96;100.00
18436;BME280;9346;52.006;4.720;2023-05-01T08:42:37;101398.53;;;13.97;100.00
18436;BME280;9346;52.006;4.720;2023-05-01T08:45:06;101405.47;;;14.00;100.00
18436;BME280;9346;52.006;4.720;2023-05-01T08:47:35;101402.66;;;14.05;100.00
18436;BME280;9346;52.006;4.720;2023-05-01T08:50:03;101410.91;;;14.15;100.00
18436;BME280;9346;52.006;4.720;2023-05-01T08:52:36;101414.78;;;14.29;100.00
18436;BME280;9346;52.006;4.720;2023-05-01T08:55:11;101417.22;;;14.35;100.00
18436;BME280;9346;52.006;4.720;2023-05-01T08:57:43;101417.22;;;14.40;100.00
18436;BME280;9346;52.006;4.720;2023-05-01T09:00:15;101420.22;;;14.44;100.00
18436;BME280;9346;52.006;4.720;2023-05-01T09:02:45;101422.69;;;14.50;100.00
18436;BME280;9346;52.006;4.720;2023-05-01T09:05:13;101425.13;;;14.57;100.00
18436;BME280;9346;52.006;4.720;2023-05-01T09:07:41;101428.72;;;14.62;100.00
18436;BME280;9346;52.006;4.720;2023-05-01T09:10:13;101430.03;;;14.70;100.00
18436;BME280;9346;52.006;4.720;2023-05-01T09:12:43;101441.41;;;14.73;100.00
18436;BME280;9346;52.006;4.720;2023-05-01T09:15:12;101435.00;;;14.73;100.00
18436;BME280;9346;52.006;4.720;2023-05-01T09:17:43;101442.53;;;14.72;100.00
18436;BME280;9346;52.006;4.720;2023-05-01T09:20:10;101447.78;;;14.74;100.00
18436;BME280;9346;52.006;4.720;2023-05-01T09:22:38;101444.44;;;14.72;100.00
18436;BME280;9346;52.006;4.720;2023-05-01T09:25:06;101441.69;;;14.72;100.00
18436;BME280;9346;52.006;4.720;2023-05-01T09:27:37;101447.50;;;14.75;100.00
18436;BME280;9346;52.006;4.720;2023-05-01T09:30:05;101450.50;;;14.79;100.00
18436;BME280;9346;52.006;4.720;2023-05-01T09:32:33;101445.78;;;14.79;100.00
18436;BME280;9346;52.006;4.720;2023-05-01T09:35:10;101447.44;;;14.80;100.00
18436;BME280;9346;52.006;4.720;2023-05-01T09:37:38;101450.19;;;14.85;100.00
18436;BME280;9346;52.006;4.720;2023-05-01T09:40:06;101455.69;;;14.90;100.00
18436;BME280;9346;52.006;4.720;2023-05-01T09:42:37;101444.28;;;14.97;100.00
18436;BME280;9346;52.006;4.720;2023-05-01T09:45:06;101438.94;;;15.05;100.00
18436;BME280;9346;52.006;4.720;2023-05-01T09:47:37;101445.56;;;15.09;100.00
18436;BME280;9346;52.006;4.720;2023-05-01T09:50:06;101447.19;;;15.15;100.00
18436;BME280;9346;52.006;4.720;2023-05-01T09:52:32;101447.16;;;15.20;100.00
18436;BME280;9346;52.006;4.720;2023-05-01T09:55:12;101456.53;;;15.24;100.00
18436;BME280;9346;52.006;4.720;2023-05-01T09:57:42;101450.13;;;15.29;100.00
18436;BME280;9346;52.006;4.720;2023-05-01T10:00:11;101458.97;;;15.31;100.00
18436;BME280;9346;52.006;4.720;2023-05-01T10:02:39;101450.34;;;15.32;100.00
18436;BME280;9346;52.006;4.720;2023-05-01T10:05:07;101458.41;;;15.34;100.00
18436;BME280;9346;52.006;4.720;2023-05-01T10:07:35;101460.38;;;15.33;100.00
18436;BME280;9346;52.006;4.720;2023-05-01T10:10:15;101468.44;;;15.30;100.00
18436;BME280;9346;52.006;4.720;2023-05-01T10:12:44;101470.13;;;15.26;100.00
18436;BME280;9346;52.006;4.720;2023-05-01T10:15:11;101464.59;;;15.26;100.00
18436;BME280;9346;52.006;4.720;2023-05-01T10:17:39;101472.34;;;15.29;100.00
18436;BME280;9346;52.006;4.720;2023-05-01T10:20:10;101466.78;;;15.29;100.00
18436;BME280;9346;52.006;4.720;2023-05-01T10:22:38;101475.72;;;15.21;100.00
18436;BME280;9346;52.006;4.720;2023-05-01T10:25:07;101481.03;;;15.17;100.00
18436;BME280;9346;52.006;4.720;2023-05-01T10:27:37;101483.53;;;15.19;100.00
18436;BME280;9346;52.006;4.720;2023-05-01T10:30:09;101488.22;;;15.18;100.00
18436;BME280;9346;52.006;4.720;2023-05-01T10:32:37;101482.41;;;15.15;100.00
18436;BME280;9346;52.006;4.720;2023-05-01T10:35:10;101473.59;;;15.08;100.00
18436;BME280;9346;52.006;4.720;2023-05-01T10:37:47;101479.78;;;14.95;100.00
18436;BME280;9346;52.006;4.720;2023-05-01T10:40:42;101493.44;;;14.91;100.00
18436;BME280;9346;52.006;4.720;2023-05-01T10:43:17;101493.44;;;14.86;100.00
18436;BME280;9346;52.006;4.720;2023-05-01T10:45:47;101492.94;;;14.79;100.00
18436;BME280;9346;52.006;4.720;2023-05-01T10:51:19;101500.53;;;14.59;100.00
18436;BME280;9346;52.006;4.720;2023-05-01T10:53:46;101495.28;;;14.52;100.00
18436;BME280;9346;52.006;4.720;2023-05-01T10:56:42;101498.38;;;14.41;100.00
18436;BME280;9346;52.006;4.720;2023-05-01T10:59:09;101488.19;;;14.36;100.00
18436;BME280;9346;52.006;4.720;2023-05-01T11:01:39;101487.06;;;14.32;100.00
18436;BME280;9346;52.006;4.720;2023-05-01T11:07:16;101483.22;;;14.23;100.00
18436;BME280;9346;52.006;4.720;2023-05-01T11:09:45;101476.88;;;14.23;100.00
18436;BME280;9346;52.006;4.720;2023-05-01T11:12:14;101482.94;;;14.20;100.00
18436;BME280;9346;52.006;4.720;2023-05-01T11:15:01;101477.13;;;14.21;100.00
18436;BME280;9346;52.006;4.720;2023-05-01T11:17:47;101484.59;;;14.21;100.00
18436;BME280;9346;52.006;4.720;2023-05-01T11:20:44;101484.88;;;14.19;100.00
18436;BME280;9346;52.006;4.720;2023-05-01T11:23:16;101487.13;;;14.12;100.00
18436;BME280;9346;52.006;4.720;2023-05-01T11:25:46;101487.44;;;14.06;100.00
18436;BME280;9346;52.006;4.720;2023-05-01T11:28:17;101485.22;;;14.03;100.00
18436;BME280;9346;52.006;4.720;2023-05-01T11:30:45;101485.22;;;13.98;100.00
18436;BME280;9346;52.006;4.720;2023-05-01T11:33:20;101483.00;;;13.95;100.00
18436;BME280;9346;52.006;4.720;2023-05-01T11:35:58;101485.50;;;13.96;100.00
18436;BME280;9346;52.006;4.720;2023-05-01T11:38:26;101480.00;;;13.91;100.00
18436;BME280;9346;52.006;4.720;2023-05-01T11:40:54;101486.94;;;13.84;100.00
18436;BME280;9346;52.006;4.720;2023-05-01T11:43:21;101485.84;;;13.75;100.00
18436;BME280;9346;52.006;4.720;2023-05-01T11:45:51;101484.16;;;13.79;100.00
18436;BME280;9346;52.006;4.720;2023-05-01T11:48:20;101478.34;;;13.85;100.00
18436;BME280;9346;52.006;4.720;2023-05-01T11:50:48;101475.84;;;13.84;100.00
18436;BME280;9346;52.006;4.720;2023-05-01T11:53:15;101476.66;;;13.84;100.00
18436;BME280;9346;52.006;4.720;2023-05-01T11:55:43;101483.03;;;13.85;100.00
18436;BME280;9346;52.006;4.720;2023-05-01T11:58:10;101483.59;;;13.87;100.00
18436;BME280;9346;52.006;4.720;2023-05-01T12:00:38;101476.38;;;13.91;100.00
18436;BME280;9346;52.006;4.720;2023-05-01T12:03:07;101486.91;;;13.89;100.00
18436;BME280;9346;52.006;4.720;2023-05-01T12:05:38;101484.69;;;13.91;100.00
18436;BME280;9346;52.006;4.720;2023-05-01T12:08:08;101475.53;;;13.90;100.00
18436;BME280;9346;52.006;4.720;2023-05-01T12:10:40;101486.34;;;13.92;100.00
18436;BME280;9346;52.006;4.720;2023-05-01T12:13:09;101486.34;;;13.92;100.00
18436;BME280;9346;52.006;4.720;2023-05-01T12:15:39;101486.91;;;13.94;100.00
18436;BME280;9346;52.006;4.720;2023-05-01T12:18:06;101482.97;;;14.05;100.00
18436;BME280;9346;52.006;4.720;2023-05-01T12:20:37;101484.06;;;14.14;100.00
18436;BME280;9346;52.006;4.720;2023-05-01T12:23:05;101487.34;;;14.21;100.00
18436;BME280;9346;52.006;4.720;2023-05-01T12:25:35;101481.56;;;14.27;100.00
18436;BME280;9346;52.006;4.720;2023-05-01T12:28:07;101485.94;;;14.38;100.00
18436;BME280;9346;52.006;4.720;2023-05-01T12:30:36;101488.38;;;14.50;100.00
18436;BME280;9346;52.006;4.720;2023-05-01T12:33:10;101484.47;;;14.56;100.00
18436;BME280;9346;52.006;4.720;2023-05-01T12:35:40;101482.25;;;14.58;100.00
18436;BME280;9346;52.006;4.720;2023-05-01T12:38:10;101481.34;;;14.67;100.00
18436;BME280;9346;52.006;4.720;2023-05-01T12:40:38;101479.66;;;14.76;100.00
18436;BME280;9346;52.006;4.720;2023-05-01T12:43:06;101475.97;;;14.86;100.00
18436;BME280;9346;52.006;4.720;2023-05-01T12:45:39;101476.22;;;14.94;100.00
18436;BME280;9346;52.006;4.720;2023-05-01T12:48:11;101477.53;;;15.02;100.00
18436;BME280;9346;52.006;4.720;2023-05-01T12:50:40;101476.63;;;15.11;100.00
18436;BME280;9346;52.006;4.720;2023-05-01T12:53:08;101485.72;;;15.22;100.00
18436;BME280;9346;52.006;4.720;2023-05-01T12:55:45;101478.94;;;15.33;100.00
18436;BME280;9346;52.006;4.720;2023-05-01T12:58:12;101481.13;;;15.41;100.00
18436;BME280;9346;52.006;4.720;2023-05-01T13:00:47;101479.16;;;15.46;100.00
18436;BME280;9346;52.006;4.720;2023-05-01T13:03:14;101486.25;;;15.57;100.00
18436;BME280;9346;52.006;4.720;2023-05-01T13:05:52;101484.50;;;15.67;100.00
18436;BME280;9346;52.006;4.720;2023-05-01T13:08:25;101477.78;;;15.73;100.00
18436;BME280;9346;52.006;4.720;2023-05-01T13:10:54;101476.25;;;15.85;100.00